Startpagina
METAR-TAF:

METAR-TAF

Vliegvelden :

Rouen, Frankrijk

breedte: 49-23N, lengte: 001-11E, hoogte: 157 m

Actueel weer

Dit bericht is 31 minuten geleden gemaakt, om 03:00 UTC
Wind 10 kt uit het oostzuidoosten
Temperatuur 12°C
Vochtigheid 50%
Druk 1015 hPa
Zicht 10 km of meer
geen wolken onder 1500 m en geen cumulonimbus

METAR: LFOP 210300Z AUTO 11010KT CAVOK 12/02 Q1015

Tijdstip: 05:31 (03:31 UTC)

Verwachting

Dit bericht is 10 uur en het 31 minuten geleden gemaakt, om 17:00 UTC
Verwachting geldig van 20 om 18 UTC tot 21 om 18 UTC
Wind 12 kt uit het oosten
Zicht 10 km of meer
geen wolken onder 1500 m en geen cumulonimbus

TAF: LFOP 201700Z 2018/2118 09012KT CAVOK

Waarnemingen en weersverwachtingen van meer dan 4000 vliegvelden (METAR en TAF).

De beschikbare stations zijn de gele en rode punten op de kaart.

Ga met uw muis naar het station om de naam te zien.

Klik dan om waarnemingen en weersverwachtingen te zien.

kaart wijzigen: klik op de groene knoppen met een zwart kruis om in te zoomen, op de groene knop met een streepje om uit te zoomen of op de groene pijlen voor aangrenzende kaarten.


METAR-TAF: